sensor_id;sensor_type;location;lat;lon;timestamp;temperature;humidity
28969;DHT22;16076;51.194;6.642;2022-12-05T00:01:59;4.90;99.90
28969;DHT22;16076;51.194;6.642;2022-12-05T00:04:24;4.80;99.90
28969;DHT22;16076;51.194;6.642;2022-12-05T00:06:50;4.90;99.90
28969;DHT22;16076;51.194;6.642;2022-12-05T00:09:16;4.80;99.90
28969;DHT22;16076;51.194;6.642;2022-12-05T00:11:44;4.70;99.90
28969;DHT22;16076;51.194;6.642;2022-12-05T00:14:12;4.80;99.90
28969;DHT22;16076;51.194;6.642;2022-12-05T00:16:40;4.80;99.90
28969;DHT22;16076;51.194;6.642;2022-12-05T00:19:08;4.80;99.90
28969;DHT22;16076;51.194;6.642;2022-12-05T00:21:36;4.90;99.90
28969;DHT22;16076;51.194;6.642;2022-12-05T00:24:03;4.80;99.90
28969;DHT22;16076;51.194;6.642;2022-12-05T00:26:30;5.00;99.90
28969;DHT22;16076;51.194;6.642;2022-12-05T00:28:56;4.80;99.90
28969;DHT22;16076;51.194;6.642;2022-12-05T00:31:23;4.70;99.90
28969;DHT22;16076;51.194;6.642;2022-12-05T00:33:50;4.70;99.90
28969;DHT22;16076;51.194;6.642;2022-12-05T00:36:20;4.80;99.90
28969;DHT22;16076;51.194;6.642;2022-12-05T00:38:46;4.70;99.90
28969;DHT22;16076;51.194;6.642;2022-12-05T00:41:15;4.80;99.90
28969;DHT22;16076;51.194;6.642;2022-12-05T00:43:42;4.80;99.90
28969;DHT22;16076;51.194;6.642;2022-12-05T00:46:14;4.80;99.90
28969;DHT22;16076;51.194;6.642;2022-12-05T00:48:40;4.60;99.90
28969;DHT22;16076;51.194;6.642;2022-12-05T00:51:12;4.60;99.90
28969;DHT22;16076;51.194;6.642;2022-12-05T00:53:39;4.70;99.90
28969;DHT22;16076;51.194;6.642;2022-12-05T00:56:11;4.70;99.90
28969;DHT22;16076;51.194;6.642;2022-12-05T00:58:38;4.60;99.90
28969;DHT22;16076;51.194;6.642;2022-12-05T01:01:10;4.70;99.90
28969;DHT22;16076;51.194;6.642;2022-12-05T01:03:36;4.80;99.90
28969;DHT22;16076;51.194;6.642;2022-12-05T01:06:02;4.80;99.90
28969;DHT22;16076;51.194;6.642;2022-12-05T01:08:31;4.70;99.90
28969;DHT22;16076;51.194;6.642;2022-12-05T01:10:57;4.70;99.90
28969;DHT22;16076;51.194;6.642;2022-12-05T01:13:24;4.80;99.90
28969;DHT22;16076;51.194;6.642;2022-12-05T01:15:51;4.80;99.90
28969;DHT22;16076;51.194;6.642;2022-12-05T01:18:17;4.80;99.90
28969;DHT22;16076;51.194;6.642;2022-12-05T01:20:44;4.80;99.90
28969;DHT22;16076;51.194;6.642;2022-12-05T01:23:10;4.90;99.90
28969;DHT22;16076;51.194;6.642;2022-12-05T01:25:43;4.80;99.90
28969;DHT22;16076;51.194;6.642;2022-12-05T01:28:10;4.80;99.90
28969;DHT22;16076;51.194;6.642;2022-12-05T01:30:39;4.90;99.90
28969;DHT22;16076;51.194;6.642;2022-12-05T01:33:06;4.90;99.90
28969;DHT22;16076;51.194;6.642;2022-12-05T01:35:33;4.80;99.90
28969;DHT22;16076;51.194;6.642;2022-12-05T01:37:59;4.90;99.90
28969;DHT22;16076;51.194;6.642;2022-12-05T01:40:25;5.00;99.90
28969;DHT22;16076;51.194;6.642;2022-12-05T01:42:51;5.00;99.90
28969;DHT22;16076;51.194;6.642;2022-12-05T01:45:25;5.00;99.90
28969;DHT22;16076;51.194;6.642;2022-12-05T01:47:55;4.80;99.90
28969;DHT22;16076;51.194;6.642;2022-12-05T01:50:20;4.80;99.90
28969;DHT22;16076;51.194;6.642;2022-12-05T01:52:49;4.90;99.90
28969;DHT22;16076;51.194;6.642;2022-12-05T01:55:16;5.00;99.90
28969;DHT22;16076;51.194;6.642;2022-12-05T01:57:45;5.10;99.90
28969;DHT22;16076;51.194;6.642;2022-12-05T02:00:15;5.20;99.90
28969;DHT22;16076;51.194;6.642;2022-12-05T02:02:45;5.30;99.90
28969;DHT22;16076;51.194;6.642;2022-12-05T02:05:24;5.30;99.90
28969;DHT22;16076;51.194;6.642;2022-12-05T02:07:54;5.30;99.90
28969;DHT22;16076;51.194;6.642;2022-12-05T02:10:21;5.30;99.90
28969;DHT22;16076;51.194;6.642;2022-12-05T02:12:49;5.30;99.90
28969;DHT22;16076;51.194;6.642;2022-12-05T02:15:38;5.30;99.90
28969;DHT22;16076;51.194;6.642;2022-12-05T02:18:18;5.20;99.90
28969;DHT22;16076;51.194;6.642;2022-12-05T02:21:05;5.30;99.90
28969;DHT22;16076;51.194;6.642;2022-12-05T02:26:32;5.40;99.90
28969;DHT22;16076;51.194;6.642;2022-12-05T02:29:20;5.40;99.90
28969;DHT22;16076;51.194;6.642;2022-12-05T02:37:25;5.30;99.90
28969;DHT22;16076;51.194;6.642;2022-12-05T02:40:08;5.50;99.90
28969;DHT22;16076;51.194;6.642;2022-12-05T02:45:08;5.50;99.90
28969;DHT22;16076;51.194;6.642;2022-12-05T02:47:41;5.50;99.90
28969;DHT22;16076;51.194;6.642;2022-12-05T02:50:09;5.50;99.90
28969;DHT22;16076;51.194;6.642;2022-12-05T02:52:36;5.30;99.90
28969;DHT22;16076;51.194;6.642;2022-12-05T02:55:03;5.40;99.90
28969;DHT22;16076;51.194;6.642;2022-12-05T02:57:30;5.20;99.90
28969;DHT22;16076;51.194;6.642;2022-12-05T02:59:57;5.10;99.90
28969;DHT22;16076;51.194;6.642;2022-12-05T03:02:27;5.10;99.90
28969;DHT22;16076;51.194;6.642;2022-12-05T03:07:48;5.10;99.90
28969;DHT22;16076;51.194;6.642;2022-12-05T03:10:20;5.10;99.90
28969;DHT22;16076;51.194;6.642;2022-12-05T03:12:59;5.20;99.90
28969;DHT22;16076;51.194;6.642;2022-12-05T03:15:32;5.30;99.90
28969;DHT22;16076;51.194;6.642;2022-12-05T03:20:44;5.30;99.90
28969;DHT22;16076;51.194;6.642;2022-12-05T03:23:24;5.20;99.90
28969;DHT22;16076;51.194;6.642;2022-12-05T03:26:15;5.30;99.90
28969;DHT22;16076;51.194;6.642;2022-12-05T03:29:16;5.30;99.90
28969;DHT22;16076;51.194;6.642;2022-12-05T03:34:20;5.20;99.90
28969;DHT22;16076;51.194;6.642;2022-12-05T03:36:49;5.10;99.90
28969;DHT22;16076;51.194;6.642;2022-12-05T03:39:29;5.20;99.90
28969;DHT22;16076;51.194;6.642;2022-12-05T03:42:10;5.20;99.90
28969;DHT22;16076;51.194;6.642;2022-12-05T03:45:00;5.20;99.90
28969;DHT22;16076;51.194;6.642;2022-12-05T03:48:10;5.20;99.90
28969;DHT22;16076;51.194;6.642;2022-12-05T03:50:40;5.20;99.90
28969;DHT22;16076;51.194;6.642;2022-12-05T03:53:42;5.30;99.90
28969;DHT22;16076;51.194;6.642;2022-12-05T03:56:20;5.30;99.90
28969;DHT22;16076;51.194;6.642;2022-12-05T03:58:55;5.40;99.90
28969;DHT22;16076;51.194;6.642;2022-12-05T04:01:26;5.40;99.90
28969;DHT22;16076;51.194;6.642;2022-12-05T04:04:09;5.40;99.90
28969;DHT22;16076;51.194;6.642;2022-12-05T04:06:37;5.40;99.90
28969;DHT22;16076;51.194;6.642;2022-12-05T04:09:25;5.40;99.90
28969;DHT22;16076;51.194;6.642;2022-12-05T04:12:02;5.40;99.90
28969;DHT22;16076;51.194;6.642;2022-12-05T04:14:34;5.40;99.90
28969;DHT22;16076;51.194;6.642;2022-12-05T04:17:03;5.50;99.90
28969;DHT22;16076;51.194;6.642;2022-12-05T04:22:24;5.60;99.90
28969;DHT22;16076;51.194;6.642;2022-12-05T04:24:51;5.60;99.90
28969;DHT22;16076;51.194;6.642;2022-12-05T04:28:04;5.60;99.90
28969;DHT22;16076;51.194;6.642;2022-12-05T04:30:53;5.60;99.90
28969;DHT22;16076;51.194;6.642;2022-12-05T04:35:59;5.50;99.90
28969;DHT22;16076;51.194;6.642;2022-12-05T04:41:06;5.50;99.90
28969;DHT22;16076;51.194;6.642;2022-12-05T04:43:39;5.50;99.90
28969;DHT22;16076;51.194;6.642;2022-12-05T04:46:11;5.50;99.90
28969;DHT22;16076;51.194;6.642;2022-12-05T04:48:40;5.50;99.90
28969;DHT22;16076;51.194;6.642;2022-12-05T04:51:14;5.50;99.90
28969;DHT22;16076;51.194;6.642;2022-12-05T04:53:45;5.50;99.90
28969;DHT22;16076;51.194;6.642;2022-12-05T04:56:13;5.50;99.90
28969;DHT22;16076;51.194;6.642;2022-12-05T04:58:41;5.60;99.90
28969;DHT22;16076;51.194;6.642;2022-12-05T05:01:41;5.60;99.90
28969;DHT22;16076;51.194;6.642;2022-12-05T05:04:11;5.70;99.90
28969;DHT22;16076;51.194;6.642;2022-12-05T05:06:39;5.70;99.90
28969;DHT22;16076;51.194;6.642;2022-12-05T05:09:06;5.70;99.90
28969;DHT22;16076;51.194;6.642;2022-12-05T05:11:33;5.70;99.90
28969;DHT22;16076;51.194;6.642;2022-12-05T05:14:00;5.70;99.90
28969;DHT22;16076;51.194;6.642;2022-12-05T05:16:30;5.50;99.90
28969;DHT22;16076;51.194;6.642;2022-12-05T05:18:56;5.60;99.90
28969;DHT22;16076;51.194;6.642;2022-12-05T05:21:33;5.60;99.90
28969;DHT22;16076;51.194;6.642;2022-12-05T05:24:02;5.70;99.90
28969;DHT22;16076;51.194;6.642;2022-12-05T05:26:28;5.70;99.90
28969;DHT22;16076;51.194;6.642;2022-12-05T05:28:56;5.70;99.90
28969;DHT22;16076;51.194;6.642;2022-12-05T05:31:22;5.70;99.90
28969;DHT22;16076;51.194;6.642;2022-12-05T05:33:52;5.70;99.90
28969;DHT22;16076;51.194;6.642;2022-12-05T05:36:20;5.70;99.90
28969;DHT22;16076;51.194;6.642;2022-12-05T05:38:49;5.60;99.90
28969;DHT22;16076;51.194;6.642;2022-12-05T05:41:21;5.60;99.90
28969;DHT22;16076;51.194;6.642;2022-12-05T05:43:50;5.60;99.90
28969;DHT22;16076;51.194;6.642;2022-12-05T05:46:17;5.60;99.90
28969;DHT22;16076;51.194;6.642;2022-12-05T05:48:43;5.60;99.90
28969;DHT22;16076;51.194;6.642;2022-12-05T05:51:11;5.60;99.90
28969;DHT22;16076;51.194;6.642;2022-12-05T05:53:37;5.70;99.90
28969;DHT22;16076;51.194;6.642;2022-12-05T05:56:08;5.70;99.90
28969;DHT22;16076;51.194;6.642;2022-12-05T05:58:34;5.70;99.90
28969;DHT22;16076;51.194;6.642;2022-12-05T06:01:12;5.70;99.90
28969;DHT22;16076;51.194;6.642;2022-12-05T06:03:39;5.60;99.90
28969;DHT22;16076;51.194;6.642;2022-12-05T06:06:07;5.60;99.90
28969;DHT22;16076;51.194;6.642;2022-12-05T06:08:37;5.60;99.90
28969;DHT22;16076;51.194;6.642;2022-12-05T06:11:08;5.60;99.90
28969;DHT22;16076;51.194;6.642;2022-12-05T06:13:34;5.50;99.90
28969;DHT22;16076;51.194;6.642;2022-12-05T06:16:00;5.60;99.90
28969;DHT22;16076;51.194;6.642;2022-12-05T06:18:29;5.50;99.90
28969;DHT22;16076;51.194;6.642;2022-12-05T06:20:56;5.50;99.90
28969;DHT22;16076;51.194;6.642;2022-12-05T06:23:22;5.50;99.90
28969;DHT22;16076;51.194;6.642;2022-12-05T06:25:54;5.50;99.90
28969;DHT22;16076;51.194;6.642;2022-12-05T06:28:23;5.50;99.90
28969;DHT22;16076;51.194;6.642;2022-12-05T06:30:49;5.40;99.90
28969;DHT22;16076;51.194;6.642;2022-12-05T06:33:15;5.50;99.90
28969;DHT22;16076;51.194;6.642;2022-12-05T06:35:41;5.50;99.90
28969;DHT22;16076;51.194;6.642;2022-12-05T06:38:08;5.40;99.90
28969;DHT22;16076;51.194;6.642;2022-12-05T06:40:34;5.40;99.90
28969;DHT22;16076;51.194;6.642;2022-12-05T06:43:06;5.40;99.90
28969;DHT22;16076;51.194;6.642;2022-12-05T06:45:36;5.40;99.90
28969;DHT22;16076;51.194;6.642;2022-12-05T06:48:02;5.30;99.90
28969;DHT22;16076;51.194;6.642;2022-12-05T06:50:27;5.30;99.90
28969;DHT22;16076;51.194;6.642;2022-12-05T06:52:53;5.30;99.90
28969;DHT22;16076;51.194;6.642;2022-12-05T06:55:22;5.30;99.90
28969;DHT22;16076;51.194;6.642;2022-12-05T06:57:47;5.30;99.90
28969;DHT22;16076;51.194;6.642;2022-12-05T07:00:14;5.30;99.90
28969;DHT22;16076;51.194;6.642;2022-12-05T07:02:58;5.30;99.90
28969;DHT22;16076;51.194;6.642;2022-12-05T07:05:26;5.30;99.90
28969;DHT22;16076;51.194;6.642;2022-12-05T07:07:52;5.30;99.90
28969;DHT22;16076;51.194;6.642;2022-12-05T07:10:18;5.30;99.90
28969;DHT22;16076;51.194;6.642;2022-12-05T07:12:46;5.30;99.90
28969;DHT22;16076;51.194;6.642;2022-12-05T07:15:12;5.20;99.90
28969;DHT22;16076;51.194;6.642;2022-12-05T07:17:38;5.20;99.90
28969;DHT22;16076;51.194;6.642;2022-12-05T07:20:07;5.10;99.90
28969;DHT22;16076;51.194;6.642;2022-12-05T07:22:35;5.10;99.90
28969;DHT22;16076;51.194;6.642;2022-12-05T07:25:01;5.10;99.90
28969;DHT22;16076;51.194;6.642;2022-12-05T07:27:27;5.00;99.90
28969;DHT22;16076;51.194;6.642;2022-12-05T07:29:53;5.00;99.90
28969;DHT22;16076;51.194;6.642;2022-12-05T07:32:19;4.90;99.90
28969;DHT22;16076;51.194;6.642;2022-12-05T07:34:45;4.90;99.90
28969;DHT22;16076;51.194;6.642;2022-12-05T07:37:11;4.90;99.90
28969;DHT22;16076;51.194;6.642;2022-12-05T07:39:38;4.80;99.90
28969;DHT22;16076;51.194;6.642;2022-12-05T07:42:04;4.80;99.90
28969;DHT22;16076;51.194;6.642;2022-12-05T07:44:30;4.80;99.90
28969;DHT22;16076;51.194;6.642;2022-12-05T07:46:57;4.60;99.90
28969;DHT22;16076;51.194;6.642;2022-12-05T07:49:23;4.60;99.90
28969;DHT22;16076;51.194;6.642;2022-12-05T07:51:49;4.60;99.90
28969;DHT22;16076;51.194;6.642;2022-12-05T07:54:17;4.60;99.90
28969;DHT22;16076;51.194;6.642;2022-12-05T07:56:42;4.60;99.90
28969;DHT22;16076;51.194;6.642;2022-12-05T07:59:08;4.60;99.90
28969;DHT22;16076;51.194;6.642;2022-12-05T08:01:34;4.60;99.90
28969;DHT22;16076;51.194;6.642;2022-12-05T08:04:01;4.70;99.90
28969;DHT22;16076;51.194;6.642;2022-12-05T08:06:28;4.60;99.90
28969;DHT22;16076;51.194;6.642;2022-12-05T08:08:55;4.60;99.90
28969;DHT22;16076;51.194;6.642;2022-12-05T08:11:28;4.70;99.90
28969;DHT22;16076;51.194;6.642;2022-12-05T08:13:55;4.70;99.90
28969;DHT22;16076;51.194;6.642;2022-12-05T08:16:24;4.70;99.90
28969;DHT22;16076;51.194;6.642;2022-12-05T08:18:59;4.80;99.90
28969;DHT22;16076;51.194;6.642;2022-12-05T08:21:26;4.70;99.90
28969;DHT22;16076;51.194;6.642;2022-12-05T08:23:55;4.80;99.90
28969;DHT22;16076;51.194;6.642;2022-12-05T08:26:27;4.80;99.90
28969;DHT22;16076;51.194;6.642;2022-12-05T08:28:57;4.80;99.90
28969;DHT22;16076;51.194;6.642;2022-12-05T08:31:25;4.80;99.90
28969;DHT22;16076;51.194;6.642;2022-12-05T08:33:51;4.80;99.90
28969;DHT22;16076;51.194;6.642;2022-12-05T08:36:18;4.80;99.90
28969;DHT22;16076;51.194;6.642;2022-12-05T08:38:44;4.80;99.90
28969;DHT22;16076;51.194;6.642;2022-12-05T08:41:13;4.80;99.90
28969;DHT22;16076;51.194;6.642;2022-12-05T08:43:39;4.80;99.90
28969;DHT22;16076;51.194;6.642;2022-12-05T08:46:08;4.80;99.90
28969;DHT22;16076;51.194;6.642;2022-12-05T08:48:34;4.90;99.90
28969;DHT22;16076;51.194;6.642;2022-12-05T08:51:05;4.90;99.90
28969;DHT22;16076;51.194;6.642;2022-12-05T08:53:31;5.00;99.90
28969;DHT22;16076;51.194;6.642;2022-12-05T08:56:01;4.90;99.90
28969;DHT22;16076;51.194;6.642;2022-12-05T08:58:28;4.90;99.90
28969;DHT22;16076;51.194;6.642;2022-12-05T09:00:54;4.90;99.90
28969;DHT22;16076;51.194;6.642;2022-12-05T09:03:20;5.00;99.90
28969;DHT22;16076;51.194;6.642;2022-12-05T09:05:45;4.90;99.90
28969;DHT22;16076;51.194;6.642;2022-12-05T09:08:11;5.00;99.90
28969;DHT22;16076;51.194;6.642;2022-12-05T09:10:37;4.90;99.90
28969;DHT22;16076;51.194;6.642;2022-12-05T09:13:05;4.90;99.90
28969;DHT22;16076;51.194;6.642;2022-12-05T09:15:31;4.90;99.90
28969;DHT22;16076;51.194;6.642;2022-12-05T09:17:57;5.00;99.90
28969;DHT22;16076;51.194;6.642;2022-12-05T09:20:23;5.10;99.90
28969;DHT22;16076;51.194;6.642;2022-12-05T09:22:51;5.10;99.90
28969;DHT22;16076;51.194;6.642;2022-12-05T09:25:16;5.10;99.90
28969;DHT22;16076;51.194;6.642;2022-12-05T09:27:46;5.10;99.90
28969;DHT22;16076;51.194;6.642;2022-12-05T09:30:15;5.10;99.90
28969;DHT22;16076;51.194;6.642;2022-12-05T09:32:41;5.20;99.90
28969;DHT22;16076;51.194;6.642;2022-12-05T09:35:07;5.30;99.90
28969;DHT22;16076;51.194;6.642;2022-12-05T09:37:33;5.30;99.90
28969;DHT22;16076;51.194;6.642;2022-12-05T09:39:58;5.40;99.90
28969;DHT22;16076;51.194;6.642;2022-12-05T09:45:36;5.30;99.90
28969;DHT22;16076;51.194;6.642;2022-12-05T09:48:14;5.30;99.90
28969;DHT22;16076;51.194;6.642;2022-12-05T09:50:45;5.30;99.90
28969;DHT22;16076;51.194;6.642;2022-12-05T09:55:51;5.50;99.90
28969;DHT22;16076;51.194;6.642;2022-12-05T09:58:27;5.50;99.90
28969;DHT22;16076;51.194;6.642;2022-12-05T10:09:29;5.80;99.90
28969;DHT22;16076;51.194;6.642;2022-12-05T10:12:05;5.90;99.90
28969;DHT22;16076;51.194;6.642;2022-12-05T10:14:58;6.00;99.90
28969;DHT22;16076;51.194;6.642;2022-12-05T10:17:32;6.00;99.90
28969;DHT22;16076;51.194;6.642;2022-12-05T10:20:02;6.00;99.90
28969;DHT22;16076;51.194;6.642;2022-12-05T10:22:57;6.10;99.90
28969;DHT22;16076;51.194;6.642;2022-12-05T10:25:26;6.00;99.90
28969;DHT22;16076;51.194;6.642;2022-12-05T10:28:00;6.10;99.90
28969;DHT22;16076;51.194;6.642;2022-12-05T10:30:30;6.10;99.90
28969;DHT22;16076;51.194;6.642;2022-12-05T10:33:04;5.90;99.90
28969;DHT22;16076;51.194;6.642;2022-12-05T10:35:38;5.80;99.90
28969;DHT22;16076;51.194;6.642;2022-12-05T10:40:37;5.80;99.90
28969;DHT22;16076;51.194;6.642;2022-12-05T10:43:05;5.90;99.90
28969;DHT22;16076;51.194;6.642;2022-12-05T10:45:45;5.90;99.90
28969;DHT22;16076;51.194;6.642;2022-12-05T10:48:15;5.90;99.90
28969;DHT22;16076;51.194;6.642;2022-12-05T10:50:45;5.80;99.90
28969;DHT22;16076;51.194;6.642;2022-12-05T10:55:59;5.70;99.90
28969;DHT22;16076;51.194;6.642;2022-12-05T10:58:27;5.70;99.90
28969;DHT22;16076;51.194;6.642;2022-12-05T11:01:05;5.70;99.90
28969;DHT22;16076;51.194;6.642;2022-12-05T11:03:33;5.70;99.90
28969;DHT22;16076;51.194;6.642;2022-12-05T11:06:24;5.70;99.90
28969;DHT22;16076;51.194;6.642;2022-12-05T11:09:12;5.60;99.90
28969;DHT22;16076;51.194;6.642;2022-12-05T11:11:41;5.40;99.90
28969;DHT22;16076;51.194;6.642;2022-12-05T11:14:21;5.30;99.90
28969;DHT22;16076;51.194;6.642;2022-12-05T11:16:56;5.30;99.90
28969;DHT22;16076;51.194;6.642;2022-12-05T11:19:27;5.30;99.90
28969;DHT22;16076;51.194;6.642;2022-12-05T11:21:54;5.40;99.90
28969;DHT22;16076;51.194;6.642;2022-12-05T11:24:34;5.40;99.90
28969;DHT22;16076;51.194;6.642;2022-12-05T11:27:28;5.30;99.90
28969;DHT22;16076;51.194;6.642;2022-12-05T11:30:02;5.30;99.90
28969;DHT22;16076;51.194;6.642;2022-12-05T11:32:32;5.20;99.90
28969;DHT22;16076;51.194;6.642;2022-12-05T11:37:53;5.30;99.90
28969;DHT22;16076;51.194;6.642;2022-12-05T11:48:36;5.80;99.90
28969;DHT22;16076;51.194;6.642;2022-12-05T11:51:25;5.70;99.90
28969;DHT22;16076;51.194;6.642;2022-12-05T12:08:28;5.50;99.90
28969;DHT22;16076;51.194;6.642;2022-12-05T12:11:06;5.40;99.90
28969;DHT22;16076;51.194;6.642;2022-12-05T12:37:31;4.90;99.90
28969;DHT22;16076;51.194;6.642;2022-12-05T12:40:13;4.80;99.90
28969;DHT22;16076;51.194;6.642;2022-12-05T12:45:22;4.50;99.90
28969;DHT22;16076;51.194;6.642;2022-12-05T12:48:07;4.50;99.90
28969;DHT22;16076;51.194;6.642;2022-12-05T12:50:45;4.50;99.90
28969;DHT22;16076;51.194;6.642;2022-12-05T12:53:34;4.60;99.90
28969;DHT22;16076;51.194;6.642;2022-12-05T12:58:50;4.40;99.90
28969;DHT22;16076;51.194;6.642;2022-12-05T13:01:31;4.20;99.90
28969;DHT22;16076;51.194;6.642;2022-12-05T13:04:03;4.10;99.90
28969;DHT22;16076;51.194;6.642;2022-12-05T13:06:45;4.00;99.90
28969;DHT22;16076;51.194;6.642;2022-12-05T13:09:25;3.90;99.90
28969;DHT22;16076;51.194;6.642;2022-12-05T13:11:55;3.70;99.90
28969;DHT22;16076;51.194;6.642;2022-12-05T13:14:24;3.60;99.90
28969;DHT22;16076;51.194;6.642;2022-12-05T13:16:53;3.60;99.90
28969;DHT22;16076;51.194;6.642;2022-12-05T13:19:29;3.50;99.90
28969;DHT22;16076;51.194;6.642;2022-12-05T13:21:57;3.70;99.90
28969;DHT22;16076;51.194;6.642;2022-12-05T13:24:25;3.70;99.90
28969;DHT22;16076;51.194;6.642;2022-12-05T13:26:58;3.80;99.90
28969;DHT22;16076;51.194;6.642;2022-12-05T13:32:04;3.80;99.90
28969;DHT22;16076;51.194;6.642;2022-12-05T13:37:09;3.80;99.90
28969;DHT22;16076;51.194;6.642;2022-12-05T13:39:56;3.80;99.90
28969;DHT22;16076;51.194;6.642;2022-12-05T13:42:42;3.80;99.90
28969;DHT22;16076;51.194;6.642;2022-12-05T13:45:13;3.70;99.90
28969;DHT22;16076;51.194;6.642;2022-12-05T13:53:15;3.60;99.90
28969;DHT22;16076;51.194;6.642;2022-12-05T13:56:27;3.50;99.90
28969;DHT22;16076;51.194;6.642;2022-12-05T13:58:54;3.40;99.90
28969;DHT22;16076;51.194;6.642;2022-12-05T14:01:46;3.30;99.90
28969;DHT22;16076;51.194;6.642;2022-12-05T14:04:46;3.30;99.90
28969;DHT22;16076;51.194;6.642;2022-12-05T14:07:36;3.30;99.90
28969;DHT22;16076;51.194;6.642;2022-12-05T14:15:53;3.70;99.90
28969;DHT22;16076;51.194;6.642;2022-12-05T14:18:46;3.80;99.90
28969;DHT22;16076;51.194;6.642;2022-12-05T14:27:12;3.80;99.90
28969;DHT22;16076;51.194;6.642;2022-12-05T14:38:01;3.70;99.90
28969;DHT22;16076;51.194;6.642;2022-12-05T14:40:31;3.70;99.90
28969;DHT22;16076;51.194;6.642;2022-12-05T14:43:06;3.60;99.90
28969;DHT22;16076;51.194;6.642;2022-12-05T14:45:36;3.50;99.90
28969;DHT22;16076;51.194;6.642;2022-12-05T14:48:21;3.30;99.90
28969;DHT22;16076;51.194;6.642;2022-12-05T14:50:50;3.20;99.90
28969;DHT22;16076;51.194;6.642;2022-12-05T14:59:01;3.10;99.90
28969;DHT22;16076;51.194;6.642;2022-12-05T15:01:39;3.20;99.90
28969;DHT22;16076;51.194;6.642;2022-12-05T15:07:06;3.30;99.90
28969;DHT22;16076;51.194;6.642;2022-12-05T15:09:56;3.40;99.90
28969;DHT22;16076;51.194;6.642;2022-12-05T15:17:45;3.60;99.90
28969;DHT22;16076;51.194;6.642;2022-12-05T15:20:36;3.60;99.90
28969;DHT22;16076;51.194;6.642;2022-12-05T15:35:02;3.70;99.90
28969;DHT22;16076;51.194;6.642;2022-12-05T15:39:55;3.70;99.90
28969;DHT22;16076;51.194;6.642;2022-12-05T15:42:24;3.60;99.90
28969;DHT22;16076;51.194;6.642;2022-12-05T15:44:59;3.50;99.90
28969;DHT22;16076;51.194;6.642;2022-12-05T15:47:36;3.50;99.90
28969;DHT22;16076;51.194;6.642;2022-12-05T15:50:01;3.40;99.90
28969;DHT22;16076;51.194;6.642;2022-12-05T15:52:32;3.30;99.90
28969;DHT22;16076;51.194;6.642;2022-12-05T15:55:05;3.30;99.90
28969;DHT22;16076;51.194;6.642;2022-12-05T15:57:43;3.20;99.90
28969;DHT22;16076;51.194;6.642;2022-12-05T16:00:14;3.20;99.90
28969;DHT22;16076;51.194;6.642;2022-12-05T16:02:45;3.20;99.90
28969;DHT22;16076;51.194;6.642;2022-12-05T16:05:32;3.10;99.90
28969;DHT22;16076;51.194;6.642;2022-12-05T16:08:04;3.20;99.90
28969;DHT22;16076;51.194;6.642;2022-12-05T16:10:31;3.20;99.90
28969;DHT22;16076;51.194;6.642;2022-12-05T16:13:06;3.30;99.90
28969;DHT22;16076;51.194;6.642;2022-12-05T16:15:32;3.40;99.90
28969;DHT22;16076;51.194;6.642;2022-12-05T16:18:01;3.40;99.90
28969;DHT22;16076;51.194;6.642;2022-12-05T16:20:35;3.40;99.90
28969;DHT22;16076;51.194;6.642;2022-12-05T16:23:31;3.40;99.90
28969;DHT22;16076;51.194;6.642;2022-12-05T16:28:38;3.60;99.90
28969;DHT22;16076;51.194;6.642;2022-12-05T16:31:04;3.60;99.90
28969;DHT22;16076;51.194;6.642;2022-12-05T16:33:31;3.60;99.90
28969;DHT22;16076;51.194;6.642;2022-12-05T16:36:10;3.60;99.90
28969;DHT22;16076;51.194;6.642;2022-12-05T16:38:37;3.70;99.90
28969;DHT22;16076;51.194;6.642;2022-12-05T16:41:05;3.60;99.90
28969;DHT22;16076;51.194;6.642;2022-12-05T16:48:43;3.50;99.90
28969;DHT22;16076;51.194;6.642;2022-12-05T16:53:49;3.40;99.90
28969;DHT22;16076;51.194;6.642;2022-12-05T16:56:31;3.50;99.90
28969;DHT22;16076;51.194;6.642;2022-12-05T16:59:02;3.50;99.90
28969;DHT22;16076;51.194;6.642;2022-12-05T17:01:28;3.50;99.90
28969;DHT22;16076;51.194;6.642;2022-12-05T17:03:54;3.50;99.90
28969;DHT22;16076;51.194;6.642;2022-12-05T17:06:21;3.50;99.90
28969;DHT22;16076;51.194;6.642;2022-12-05T17:08:49;3.50;99.90
28969;DHT22;16076;51.194;6.642;2022-12-05T17:11:39;3.60;99.90
28969;DHT22;16076;51.194;6.642;2022-12-05T17:14:06;3.60;99.90
28969;DHT22;16076;51.194;6.642;2022-12-05T17:16:33;3.60;99.90
28969;DHT22;16076;51.194;6.642;2022-12-05T17:18:59;3.60;99.90
28969;DHT22;16076;51.194;6.642;2022-12-05T17:21:29;3.60;99.90
28969;DHT22;16076;51.194;6.642;2022-12-05T17:23:55;3.50;99.90
28969;DHT22;16076;51.194;6.642;2022-12-05T17:26:24;3.50;99.90
28969;DHT22;16076;51.194;6.642;2022-12-05T17:28:50;3.50;99.90
28969;DHT22;16076;51.194;6.642;2022-12-05T17:31:20;3.40;99.90
28969;DHT22;16076;51.194;6.642;2022-12-05T17:33:47;3.40;99.90
28969;DHT22;16076;51.194;6.642;2022-12-05T17:36:13;3.40;99.90
28969;DHT22;16076;51.194;6.642;2022-12-05T17:38:39;3.40;99.90
28969;DHT22;16076;51.194;6.642;2022-12-05T17:41:05;3.40;99.90
28969;DHT22;16076;51.194;6.642;2022-12-05T17:43:31;3.40;99.90
28969;DHT22;16076;51.194;6.642;2022-12-05T17:45:59;3.40;99.90
28969;DHT22;16076;51.194;6.642;2022-12-05T17:48:24;3.40;99.90
28969;DHT22;16076;51.194;6.642;2022-12-05T17:50:51;3.50;99.90
28969;DHT22;16076;51.194;6.642;2022-12-05T17:53:19;3.50;99.90
28969;DHT22;16076;51.194;6.642;2022-12-05T17:55:44;3.60;99.90
28969;DHT22;16076;51.194;6.642;2022-12-05T17:58:13;3.60;99.90
28969;DHT22;16076;51.194;6.642;2022-12-05T18:00:40;3.60;99.90
28969;DHT22;16076;51.194;6.642;2022-12-05T18:03:14;3.60;99.90
28969;DHT22;16076;51.194;6.642;2022-12-05T18:05:40;3.70;99.90
28969;DHT22;16076;51.194;6.642;2022-12-05T18:08:06;3.70;99.90
28969;DHT22;16076;51.194;6.642;2022-12-05T18:10:33;3.70;99.90
28969;DHT22;16076;51.194;6.642;2022-12-05T18:13:01;3.70;99.90
28969;DHT22;16076;51.194;6.642;2022-12-05T18:15:26;3.70;99.90
28969;DHT22;16076;51.194;6.642;2022-12-05T18:17:52;3.70;99.90
28969;DHT22;16076;51.194;6.642;2022-12-05T18:20:19;3.80;99.90
28969;DHT22;16076;51.194;6.642;2022-12-05T18:22:45;3.70;99.90
28969;DHT22;16076;51.194;6.642;2022-12-05T18:25:11;3.80;99.90
28969;DHT22;16076;51.194;6.642;2022-12-05T18:27:37;3.80;99.90
28969;DHT22;16076;51.194;6.642;2022-12-05T18:30:04;3.80;99.90
28969;DHT22;16076;51.194;6.642;2022-12-05T18:32:30;3.80;99.90
28969;DHT22;16076;51.194;6.642;2022-12-05T18:34:56;3.90;99.90
28969;DHT22;16076;51.194;6.642;2022-12-05T18:37:24;3.90;99.90
28969;DHT22;16076;51.194;6.642;2022-12-05T18:39:49;3.90;99.90
28969;DHT22;16076;51.194;6.642;2022-12-05T18:42:15;4.10;99.90
28969;DHT22;16076;51.194;6.642;2022-12-05T18:44:41;3.90;99.90
28969;DHT22;16076;51.194;6.642;2022-12-05T18:47:07;4.00;99.90
28969;DHT22;16076;51.194;6.642;2022-12-05T18:49:32;4.00;99.90
28969;DHT22;16076;51.194;6.642;2022-12-05T18:51:58;4.00;99.90
28969;DHT22;16076;51.194;6.642;2022-12-05T18:54:23;4.00;99.90
28969;DHT22;16076;51.194;6.642;2022-12-05T18:56:49;4.10;99.90
28969;DHT22;16076;51.194;6.642;2022-12-05T18:59:19;4.10;99.90
28969;DHT22;16076;51.194;6.642;2022-12-05T19:01:45;4.10;99.90